East Hampton, NY

12:10 AM EST on December 26, 2014 (GMT -0500)
Groton-New London | Change Station
CLOSE
Current Station
Airport
Location: Groton,
Elevation: 10 ft
Nearby Weather Stations

Elev 10 ft 41.33 °N, 72.05 °W | Updated 14 minutes ago

Clear
Clear
42 °F
Feels Like 37 °F
N
8
Wind Variable Wind from West

Today
High -- | Low -- °F
--% Chance of Precip.
Yesterday
High -- | Low -- °F
Precip. -- in
7:12 AM 4:26 PM
Waxing Crescent, 22% visible
Pressure 30.04 in
Visibility 8.0 miles
Clouds Clear
Windchill 37 °F
Dew Point 30 °F
Humidity 62%
Rainfall 0.04 in
Snow Depth Not available.
UV 0 out of 12
Pollen .10 out of 12
Air Quality Not available.
Flu Activity Not available.
METAR KGON 260456Z AUTO 27007KT 8SM CLR 06/M01 A3004 RMK AO2 SLP171 T00561011 401220056

More Conditions Fewer Conditions

Pressure 30.04 in
Visibility 8.0 miles
Clouds Clear
Windchill 37 °F
Dew Point 30 °F
Humidity 62%
Rainfall 0.04 in
Snow Depth Not available.
UV 0 out of 12
Pollen .10 out of 12
Air Quality Not available.
Flu Activity Not available.
METAR KGON 260456Z AUTO 27007KT 8SM CLR 06/M01 A3004 RMK AO2 SLP171 T00561011 401220056

More Conditions Fewer Conditions

10-Day Weather Forecast

Almanac

Astronomy

Dec. 26, 2014 Rise Set
Actual Time
Civil Twilight
Nautical Twilight
Astronomical Twilight
Moon
Length of Visible Light
Length of Day
Tomorrow will be .
, % of the Moon is Illuminated

Today's Extremes

State Highs State Lows

Community

WunderPhotos

Upload Photos

1,780,546 photos uploaded!

WunderBlogs® & News

Nearby

Air Quality

  Air Quality AQ Index Pollutant
Not available.

Snow Depth

Station Depth Elevation

Earthquake Activity

City Distance Mag. Time & Date
Minimum magnitude displayed is 2.5.

Coastal Water Temperatures

Place Temperature

Nearby Weather Stations